This is the latest recevied weather packets stored in our database for station/object S53BL-10. If no packets are shown the sender has not sent any weather packets the latest 10 day(s).
| Time | Temp. | Humidity | Pressure | Rain* | Wind** | Luminosity | Snow |
|---|---|---|---|---|---|---|---|
| 1777113318 | 26.67° C | 21% | 1012.5 hPa | - | - | - | - |
| 1777112418 | 27.78° C | 22% | 1012.6 hPa | - | - | - | - |
| 1777111516 | 26.11° C | 23% | 1012.9 hPa | - | - | - | - |
| 1777110615 | 27.22° C | 25% | 1013.1 hPa | - | - | - | - |
| 1777109714 | 28.33° C | 24% | 1013.3 hPa | - | - | - | - |
| 1777108813 | 27.22° C | 26% | 1013.4 hPa | - | - | - | - |
| 1777107913 | 24.44° C | 30% | 1013.6 hPa | - | - | - | - |
| 1777107012 | 23.33° C | 33% | 1013.7 hPa | - | - | - | - |
| 1777106111 | 22.78° C | 34% | 1013.8 hPa | - | - | - | - |
| 1777105210 | 21.67° C | 35% | 1014 hPa | - | - | - | - |
| 1777104309 | 18.89° C | 42% | 1014.1 hPa | - | - | - | - |
| 1777103409 | 17.78° C | 46% | 1014.2 hPa | - | - | - | - |
| 1777102508 | 17.78° C | 47% | 1014.3 hPa | - | - | - | - |
| 1777101607 | 15.56° C | 53% | 1014.3 hPa | - | - | - | - |
| 1777100706 | 12.78° C | 60% | 1014.5 hPa | - | - | - | - |
| 1777099805 | 12.78° C | 62% | 1014.6 hPa | - | - | - | - |
| 1777098905 | 10.56° C | 70% | 1014.6 hPa | - | - | - | - |
| 1777098004 | 8.89° C | 76% | 1014.6 hPa | - | - | - | - |
| 1777097103 | 8.33° C | 81% | 1014.7 hPa | - | - | - | - |
| 1777096202 | 7.22° C | 85% | 1014.6 hPa | - | - | - | - |
| 1777095301 | 6.67° C | 86% | 1014.5 hPa | - | - | - | - |
| 1777094401 | 6.67° C | 80% | 1014.5 hPa | - | - | - | - |
| 1777093500 | 6.67° C | 83% | 1014.6 hPa | - | - | - | - |
| 1777092599 | 6.67° C | 77% | 1014.3 hPa | - | - | - | - |
| 1777091698 | 6.67° C | 80% | 1014.2 hPa | - | - | - | - |
* Rain since midnight (hover to see other rain measurements)
** Current wind speed in m/s (hover to see current wind gust speed)